• Join FlightAware (Why Join?)
  • Login
  • US Flag 
01:17PM EDT


 

Airport Tracker/Info


-or-


 

Live Flight TrackerFlight Track Log ✈ N28705 ✈ 07-Apr-2012 ✈ KALB - KCXY

Flight Track Log - Related Links

Times and Time Zones

All times are in EDT time to prevent confusion due to time zone crossing. See the N28705 flight status page for this flight to view local times or setup timezone preferences in your user account.

Time Position Orientation Groundspeed Altitude Reporting Facility
EDT Latitude Longitude Course Direction KTS MPH feet Rate Location/Type
05:45PM 42.7353 -73.8703 218° Southwest 101 116 2,800  Level Boston Center
05:46PM 42.7142 -73.8925 218° Southwest 101 116 3,400 600 Climbing Boston Center
05:47PM 42.6908 -73.9175 219° Southwest 102 117 4,100 660 Climbing Boston Center
05:48PM 42.6656 -73.9450 221° Southwest 104 120 4,800 660 Climbing Boston Center
05:49PM 42.6422 -73.9728 230° Southwest 106 122 5,500 540 Climbing Boston Center
05:50PM 42.6253 -74.0006 221° Southwest 105 121 6,000 480 Climbing Boston Center
05:51PM 42.6019 -74.0281 226° Southwest 107 123 6,500 240 Climbing Boston Center
05:52PM 42.5786 -74.0614 221° Southwest 121 139 6,500  Level Boston Center
05:53PM 42.5508 -74.0944 226° Southwest 129 148 6,500  Level Boston Center
05:54PM 42.5253 -74.1303 224° Southwest 127 146 6,500 -60 Level Boston Center
05:55PM 42.5000 -74.1636 221° Southwest 126 145 6,400 -60 Descending Boston Center
05:56PM 42.4744 -74.1939 224° Southwest 125 144 6,400  Level Boston Center
05:57PM 42.4511 -74.2242 213° Southwest 126 145 6,400  Level Boston Center
05:58PM 42.4297 -74.2431 224° Southwest 124 143 6,400  Level Boston Center
05:59PM 42.4064 -74.2733 224° Southwest 124 143 6,400  Level Boston Center
06:00PM 42.3767 -74.3119 226° Southwest 124 143 6,400  Level Boston Center
06:01PM 42.3553 -74.3422 223° Southwest 124 143 6,400  Level Boston Center
06:02PM 42.3297 -74.3750 226° Southwest 118 136 6,400  Level Boston Center
06:03PM 42.3019 -74.4136 226° Southwest 123 142 6,400 60 Level Boston Center
06:04PM 42.2783 -74.4464 224° Southwest 123 142 6,600 120 Climbing Boston Center
06:05PM 42.2550 -74.4767 228° Southwest 123 142 6,700  Climbing Boston Center
06:06PM 42.2292 -74.5150 224° Southwest 128 147 6,700 -60 Level Boston Center
06:07PM 42.2036 -74.5478 228° Southwest 134 154 6,600  Descending Boston Center
06:08PM 42.1800 -74.5833 221° Southwest 134 154 6,700  Climbing Boston Center
06:09PM 42.1544 -74.6133 228° Southwest 134 154 6,600 -60 Descending Boston Center
06:10PM 42.1286 -74.6517 221° Southwest 134 154 6,600  Level Boston Center
06:11PM 42.1031 -74.6814 225° Southwest 134 154 6,600  Level Boston Center
06:12PM 42.0731 -74.7225 210° Southwest 134 154 6,600 120 Level Boston Center
06:13PM 42.0456 -74.7439 221° Southwest 134 154 6,900 300 Climbing Boston Center
06:14PM 42.0200 -74.7736 221° Southwest 129 148 7,300 420 Climbing Boston Center
06:15PM 41.9900 -74.8089 222° Southwest 129 148 7,800 60 Climbing Boston Center
06:26PM 41.6617 -75.1969 220° Southwest 138 159 8,400  Climbing New York Center
06:27PM 41.6336 -75.2283 220° Southwest 143 165 8,400  Level New York Center
06:28PM 41.6031 -75.2622 215° Southwest 131 151 8,400  Level New York Center
06:29PM 41.5728 -75.2908 226° Southwest 126 145 8,400  Level New York Center
06:30PM 41.5444 -75.3303 222° Southwest 138 159 8,400  Level New York Center
06:31PM 41.5225 -75.3567 224° Southwest 143 165 8,400  Level New York Center
06:32PM 41.4961 -75.3908 222° Southwest 143 165 8,400  Level New York Center
06:33PM 41.4656 -75.4275 224° Southwest 143 165 8,400  Level New York Center
06:34PM 41.4392 -75.4617 222° Southwest 138 159 8,400  Level New York Center
06:35PM 41.4108 -75.4956 219° Southwest 138 159 8,400  Level New York Center
06:36PM 41.3847 -75.5242 222° Southwest 143 165 8,400  Level New York Center
06:37PM 41.3583 -75.5556 222° Southwest 143 165 8,400  Level New York Center
06:38PM 41.3278 -75.5919 220° Southwest 143 165 8,400  Level New York Center
06:39PM 41.2994 -75.6231 220° Southwest 143 165 8,400  Level New York Center
06:40PM 41.2711 -75.6542 217° Southwest 143 165 8,400  Level New York Center
06:41PM 41.2428 -75.6825 216° Southwest 143 165 8,400  Level New York Center
06:42PM 41.2103 -75.7133 219° Southwest 143 165 8,400  Level New York Center
06:43PM 41.1819 -75.7442 220° Southwest 138 159 8,400  Level New York Center
06:44PM 41.1536 -75.7753 222° Southwest 138 159 8,400  Level New York Center
06:45PM 41.1250 -75.8089 219° Southwest 138 159 8,400  Level New York Center
06:46PM 41.0989 -75.8372 222° Southwest 138 159 8,400  Level New York Center
06:47PM 41.0725 -75.8683 219° Southwest 138 159 8,400  Level New York Center
06:48PM 41.0419 -75.9017 217° Southwest 138 159 8,400  Level New York Center
06:49PM 41.0114 -75.9325 221° Southwest 138 159 8,400  Level New York Center
06:50PM 40.9850 -75.9633 219° Southwest 138 159 8,400  Level New York Center
06:51PM 40.9589 -75.9917 224° Southwest 138 159 8,400  Level New York Center
06:52PM 40.9344 -76.0228 220° Southwest 138 159 8,400  Level New York Center
06:53PM 40.9017 -76.0586 219° Southwest 138 159 8,400  Level New York Center
06:54PM 40.8708 -76.0919 224° Southwest 138 159 8,400  Level New York Center
06:55PM 40.8467 -76.1231 224° Southwest 138 159 8,400  Level New York Center
06:56PM 40.8200 -76.1567 221° Southwest 143 165 8,400  Level New York Center
06:57PM 40.7869 -76.1950 222° Southwest 143 165 8,400  Level New York Center
06:58PM 40.7561 -76.2311 221° Southwest 143 165 8,400  Level New York Center
06:59PM 40.7275 -76.2644 221° Southwest 143 165 8,400  Level New York Center
07:00PM 40.7033 -76.2925 219° Southwest 143 165 8,400  Level New York Center
07:01PM 40.6728 -76.3256 221° Southwest 138 159 8,400  Level New York Center
07:02PM 40.6439 -76.3589 221° Southwest 138 159 8,400  Level New York Center
07:03PM 40.6153 -76.3919 222° Southwest 138 159 8,400  Level New York Center
07:04PM 40.5911 -76.4203 219° Southwest 138 159 8,400  Level New York Center
07:05PM 40.5625 -76.4506 213° Southwest 143 165 8,500  Climbing New York Center
07:06PM 40.5300 -76.4781 210° Southwest 143 165 8,400 -60 Descending New York Center
07:07PM 40.4975 -76.5025 209° Southwest 143 165 8,400  Level New York Center
07:08PM 40.4672 -76.5247 208° Southwest 137 158 8,400 -120 Level New York Center
07:09PM 40.4392 -76.5442 211° Southwest 137 158 8,200 -600 Descending New York Center
07:10PM 40.4044 -76.5711 211° Southwest 137 158 7,300 -960 Descending New York Center
07:11PM 40.3764 -76.5933 214° Southwest 126 145 6,400 -1,080 Descending New York Center
07:12PM 40.3481 -76.6181 213° Southwest 126 145 5,200 -1,200 Descending New York Center
07:13PM 40.3219 -76.6406 237° Southwest 131 151 4,100 -1,140 Descending New York Center
07:21PM 40.2167 -76.8500 294° West  Level FlightAware Approximate
07:22PM 40.2313 -76.8927 114° Southeast  Level Estimated
07:23PM 40.2167 -76.8500 114° Southeast  Level FlightAware Approximate